sensor_id;sensor_type;location;lat;lon;timestamp;temperature;humidity
3678;DHT22;1855;50.934;6.958;2023-04-05T00:02:00;4.60;61.90
3678;DHT22;1855;50.934;6.958;2023-04-05T00:04:27;4.60;62.10
3678;DHT22;1855;50.934;6.958;2023-04-05T00:06:54;4.50;61.50
3678;DHT22;1855;50.934;6.958;2023-04-05T00:09:23;4.50;62.50
3678;DHT22;1855;50.934;6.958;2023-04-05T00:11:50;4.40;61.90
3678;DHT22;1855;50.934;6.958;2023-04-05T00:14:17;4.40;61.70
3678;DHT22;1855;50.934;6.958;2023-04-05T00:16:44;4.30;63.00
3678;DHT22;1855;50.934;6.958;2023-04-05T00:19:11;4.30;62.90
3678;DHT22;1855;50.934;6.958;2023-04-05T00:21:38;4.30;63.60
3678;DHT22;1855;50.934;6.958;2023-04-05T00:24:05;4.30;63.50
3678;DHT22;1855;50.934;6.958;2023-04-05T00:26:41;4.30;61.50
3678;DHT22;1855;50.934;6.958;2023-04-05T00:29:09;4.30;62.10
3678;DHT22;1855;50.934;6.958;2023-04-05T00:31:36;4.30;64.20
3678;DHT22;1855;50.934;6.958;2023-04-05T00:34:02;4.40;63.30
3678;DHT22;1855;50.934;6.958;2023-04-05T00:36:30;4.40;63.80
3678;DHT22;1855;50.934;6.958;2023-04-05T00:38:57;4.40;62.70
3678;DHT22;1855;50.934;6.958;2023-04-05T00:41:23;4.50;62.10
3678;DHT22;1855;50.934;6.958;2023-04-05T00:43:51;4.50;61.70
3678;DHT22;1855;50.934;6.958;2023-04-05T00:46:18;4.60;61.70
3678;DHT22;1855;50.934;6.958;2023-04-05T00:48:46;4.60;62.50
3678;DHT22;1855;50.934;6.958;2023-04-05T00:51:12;4.70;62.10
3678;DHT22;1855;50.934;6.958;2023-04-05T00:53:39;4.70;62.10
3678;DHT22;1855;50.934;6.958;2023-04-05T00:56:07;4.70;62.60
3678;DHT22;1855;50.934;6.958;2023-04-05T00:58:34;4.70;63.20
3678;DHT22;1855;50.934;6.958;2023-04-05T01:01:06;4.70;63.60
3678;DHT22;1855;50.934;6.958;2023-04-05T01:03:40;4.70;63.20
3678;DHT22;1855;50.934;6.958;2023-04-05T01:06:16;4.70;63.00
3678;DHT22;1855;50.934;6.958;2023-04-05T01:08:54;4.70;61.90
3678;DHT22;1855;50.934;6.958;2023-04-05T01:11:26;4.80;61.80
3678;DHT22;1855;50.934;6.958;2023-04-05T01:13:57;4.80;60.60
3678;DHT22;1855;50.934;6.958;2023-04-05T01:16:25;4.80;60.50
3678;DHT22;1855;50.934;6.958;2023-04-05T01:18:52;4.80;59.90
3678;DHT22;1855;50.934;6.958;2023-04-05T01:24:59;4.80;60.60
3678;DHT22;1855;50.934;6.958;2023-04-05T01:27:42;4.80;62.20
3678;DHT22;1855;50.934;6.958;2023-04-05T01:30:16;4.80;61.80
3678;DHT22;1855;50.934;6.958;2023-04-05T01:32:54;4.80;63.10
3678;DHT22;1855;50.934;6.958;2023-04-05T01:35:29;4.80;64.20
3678;DHT22;1855;50.934;6.958;2023-04-05T01:38:01;4.80;63.70
3678;DHT22;1855;50.934;6.958;2023-04-05T01:40:29;4.80;63.50
3678;DHT22;1855;50.934;6.958;2023-04-05T01:42:56;4.80;64.60
3678;DHT22;1855;50.934;6.958;2023-04-05T01:45:24;4.80;65.80
3678;DHT22;1855;50.934;6.958;2023-04-05T01:47:51;4.80;65.90
3678;DHT22;1855;50.934;6.958;2023-04-05T01:50:18;4.80;64.80
3678;DHT22;1855;50.934;6.958;2023-04-05T01:52:45;4.70;64.20
3678;DHT22;1855;50.934;6.958;2023-04-05T01:55:12;4.70;64.30
3678;DHT22;1855;50.934;6.958;2023-04-05T01:57:38;4.70;64.30
3678;DHT22;1855;50.934;6.958;2023-04-05T02:00:06;4.70;66.00
3678;DHT22;1855;50.934;6.958;2023-04-05T02:02:35;4.70;66.40
3678;DHT22;1855;50.934;6.958;2023-04-05T02:05:04;4.60;65.70
3678;DHT22;1855;50.934;6.958;2023-04-05T02:07:31;4.60;65.40
3678;DHT22;1855;50.934;6.958;2023-04-05T02:09:58;4.50;65.90
3678;DHT22;1855;50.934;6.958;2023-04-05T02:12:24;4.50;66.40
3678;DHT22;1855;50.934;6.958;2023-04-05T02:14:51;4.50;66.90
3678;DHT22;1855;50.934;6.958;2023-04-05T02:17:18;4.50;66.50
3678;DHT22;1855;50.934;6.958;2023-04-05T02:19:47;4.50;65.90
3678;DHT22;1855;50.934;6.958;2023-04-05T02:22:14;4.50;65.60
3678;DHT22;1855;50.934;6.958;2023-04-05T02:24:41;4.50;65.80
3678;DHT22;1855;50.934;6.958;2023-04-05T02:27:07;4.50;66.60
3678;DHT22;1855;50.934;6.958;2023-04-05T02:29:34;4.50;66.50
3678;DHT22;1855;50.934;6.958;2023-04-05T02:32:01;4.40;67.20
3678;DHT22;1855;50.934;6.958;2023-04-05T02:34:28;4.40;65.80
3678;DHT22;1855;50.934;6.958;2023-04-05T02:36:56;4.40;65.90
3678;DHT22;1855;50.934;6.958;2023-04-05T02:39:23;4.40;66.10
3678;DHT22;1855;50.934;6.958;2023-04-05T02:41:50;4.30;66.50
3678;DHT22;1855;50.934;6.958;2023-04-05T02:44:17;4.30;66.00
3678;DHT22;1855;50.934;6.958;2023-04-05T02:46:44;4.20;66.10
3678;DHT22;1855;50.934;6.958;2023-04-05T02:49:10;4.20;66.30
3678;DHT22;1855;50.934;6.958;2023-04-05T02:51:37;4.10;66.50
3678;DHT22;1855;50.934;6.958;2023-04-05T02:54:05;4.10;66.30
3678;DHT22;1855;50.934;6.958;2023-04-05T02:56:32;4.10;66.80
3678;DHT22;1855;50.934;6.958;2023-04-05T02:58:59;4.10;67.30
3678;DHT22;1855;50.934;6.958;2023-04-05T03:01:26;4.00;68.00
3678;DHT22;1855;50.934;6.958;2023-04-05T03:03:53;4.00;67.80
3678;DHT22;1855;50.934;6.958;2023-04-05T03:06:20;3.90;68.40
3678;DHT22;1855;50.934;6.958;2023-04-05T03:08:46;3.80;68.60
3678;DHT22;1855;50.934;6.958;2023-04-05T03:11:15;3.70;69.60
3678;DHT22;1855;50.934;6.958;2023-04-05T03:13:42;3.70;70.30
3678;DHT22;1855;50.934;6.958;2023-04-05T03:16:08;3.70;70.80
3678;DHT22;1855;50.934;6.958;2023-04-05T03:18:37;3.60;70.70
3678;DHT22;1855;50.934;6.958;2023-04-05T03:21:03;3.50;71.20
3678;DHT22;1855;50.934;6.958;2023-04-05T03:23:31;3.50;71.50
3678;DHT22;1855;50.934;6.958;2023-04-05T03:25:58;3.50;72.10
3678;DHT22;1855;50.934;6.958;2023-04-05T03:28:27;3.40;72.50
3678;DHT22;1855;50.934;6.958;2023-04-05T03:30:54;3.40;73.20
3678;DHT22;1855;50.934;6.958;2023-04-05T03:33:21;3.40;73.30
3678;DHT22;1855;50.934;6.958;2023-04-05T03:35:48;3.40;73.80
3678;DHT22;1855;50.934;6.958;2023-04-05T03:38:15;3.30;73.50
3678;DHT22;1855;50.934;6.958;2023-04-05T03:40:42;3.30;73.90
3678;DHT22;1855;50.934;6.958;2023-04-05T03:43:09;3.30;75.10
3678;DHT22;1855;50.934;6.958;2023-04-05T03:45:37;3.20;75.50
3678;DHT22;1855;50.934;6.958;2023-04-05T03:48:04;3.30;75.50
3678;DHT22;1855;50.934;6.958;2023-04-05T03:50:31;3.20;76.00
3678;DHT22;1855;50.934;6.958;2023-04-05T03:52:58;3.20;75.40
3678;DHT22;1855;50.934;6.958;2023-04-05T03:55:24;3.10;75.70
3678;DHT22;1855;50.934;6.958;2023-04-05T03:57:52;3.10;76.70
3678;DHT22;1855;50.934;6.958;2023-04-05T04:00:19;3.10;76.10
3678;DHT22;1855;50.934;6.958;2023-04-05T04:02:49;3.00;76.00
3678;DHT22;1855;50.934;6.958;2023-04-05T04:05:17;3.10;75.70
3678;DHT22;1855;50.934;6.958;2023-04-05T04:07:44;3.10;75.30
3678;DHT22;1855;50.934;6.958;2023-04-05T04:10:14;3.10;75.60
3678;DHT22;1855;50.934;6.958;2023-04-05T04:12:42;3.00;74.70
3678;DHT22;1855;50.934;6.958;2023-04-05T04:15:09;3.00;76.10
3678;DHT22;1855;50.934;6.958;2023-04-05T04:17:36;3.00;75.60
3678;DHT22;1855;50.934;6.958;2023-04-05T04:20:06;3.00;76.50
3678;DHT22;1855;50.934;6.958;2023-04-05T04:22:35;3.00;75.10
3678;DHT22;1855;50.934;6.958;2023-04-05T04:25:04;3.00;74.80
3678;DHT22;1855;50.934;6.958;2023-04-05T04:27:36;3.00;76.00
3678;DHT22;1855;50.934;6.958;2023-04-05T04:30:06;2.90;75.10
3678;DHT22;1855;50.934;6.958;2023-04-05T04:32:35;2.90;74.80
3678;DHT22;1855;50.934;6.958;2023-04-05T04:35:21;2.90;75.70
3678;DHT22;1855;50.934;6.958;2023-04-05T04:37:55;2.90;76.30
3678;DHT22;1855;50.934;6.958;2023-04-05T04:40:23;2.90;76.40
3678;DHT22;1855;50.934;6.958;2023-04-05T04:42:51;2.80;76.40
3678;DHT22;1855;50.934;6.958;2023-04-05T04:45:19;2.80;76.40
3678;DHT22;1855;50.934;6.958;2023-04-05T04:47:47;2.80;77.00
3678;DHT22;1855;50.934;6.958;2023-04-05T04:50:15;2.80;77.90
3678;DHT22;1855;50.934;6.958;2023-04-05T04:52:46;2.80;78.30
3678;DHT22;1855;50.934;6.958;2023-04-05T04:55:13;2.80;78.90
3678;DHT22;1855;50.934;6.958;2023-04-05T04:57:40;2.80;78.10
3678;DHT22;1855;50.934;6.958;2023-04-05T05:00:07;2.70;77.40
3678;DHT22;1855;50.934;6.958;2023-04-05T05:02:40;2.70;78.00
3678;DHT22;1855;50.934;6.958;2023-04-05T05:05:08;2.70;78.00
3678;DHT22;1855;50.934;6.958;2023-04-05T05:07:36;2.70;77.80
3678;DHT22;1855;50.934;6.958;2023-04-05T05:10:05;2.70;78.00
3678;DHT22;1855;50.934;6.958;2023-04-05T05:12:32;2.70;78.50
3678;DHT22;1855;50.934;6.958;2023-04-05T05:14:59;2.70;79.70
3678;DHT22;1855;50.934;6.958;2023-04-05T05:17:25;2.60;80.70
3678;DHT22;1855;50.934;6.958;2023-04-05T05:19:52;2.70;81.60
3678;DHT22;1855;50.934;6.958;2023-04-05T05:22:19;2.60;82.50
3678;DHT22;1855;50.934;6.958;2023-04-05T05:24:45;2.60;82.90
3678;DHT22;1855;50.934;6.958;2023-04-05T05:27:14;2.60;84.00
3678;DHT22;1855;50.934;6.958;2023-04-05T05:29:40;2.60;83.30
3678;DHT22;1855;50.934;6.958;2023-04-05T05:32:07;2.70;82.10
3678;DHT22;1855;50.934;6.958;2023-04-05T05:34:39;2.70;80.70
3678;DHT22;1855;50.934;6.958;2023-04-05T05:37:05;2.70;80.40
3678;DHT22;1855;50.934;6.958;2023-04-05T05:39:33;2.70;79.60
3678;DHT22;1855;50.934;6.958;2023-04-05T05:42:00;2.70;78.90
3678;DHT22;1855;50.934;6.958;2023-04-05T05:44:29;2.70;78.30
3678;DHT22;1855;50.934;6.958;2023-04-05T05:46:56;2.60;78.10
3678;DHT22;1855;50.934;6.958;2023-04-05T05:49:22;2.60;77.80
3678;DHT22;1855;50.934;6.958;2023-04-05T05:51:49;2.60;77.80
3678;DHT22;1855;50.934;6.958;2023-04-05T05:54:17;2.50;78.30
3678;DHT22;1855;50.934;6.958;2023-04-05T05:56:44;2.60;79.40
3678;DHT22;1855;50.934;6.958;2023-04-05T05:59:10;2.60;79.10
3678;DHT22;1855;50.934;6.958;2023-04-05T06:01:39;2.60;77.10
3678;DHT22;1855;50.934;6.958;2023-04-05T06:04:07;2.60;77.60
3678;DHT22;1855;50.934;6.958;2023-04-05T06:06:33;2.70;77.40
3678;DHT22;1855;50.934;6.958;2023-04-05T06:09:00;2.70;77.90
3678;DHT22;1855;50.934;6.958;2023-04-05T06:11:27;2.70;77.70
3678;DHT22;1855;50.934;6.958;2023-04-05T06:13:54;2.80;78.00
3678;DHT22;1855;50.934;6.958;2023-04-05T06:16:21;2.80;76.80
3678;DHT22;1855;50.934;6.958;2023-04-05T06:18:49;2.80;77.30
3678;DHT22;1855;50.934;6.958;2023-04-05T06:21:15;2.80;76.20
3678;DHT22;1855;50.934;6.958;2023-04-05T06:23:42;2.90;76.10
3678;DHT22;1855;50.934;6.958;2023-04-05T06:26:16;2.90;76.60
3678;DHT22;1855;50.934;6.958;2023-04-05T06:28:45;2.90;76.40
3678;DHT22;1855;50.934;6.958;2023-04-05T06:31:13;3.00;76.10
3678;DHT22;1855;50.934;6.958;2023-04-05T06:33:41;3.10;75.20
3678;DHT22;1855;50.934;6.958;2023-04-05T06:36:10;3.10;75.20
3678;DHT22;1855;50.934;6.958;2023-04-05T06:38:37;3.20;75.00
3678;DHT22;1855;50.934;6.958;2023-04-05T06:41:03;3.30;74.20
3678;DHT22;1855;50.934;6.958;2023-04-05T06:43:30;3.30;73.70
3678;DHT22;1855;50.934;6.958;2023-04-05T06:45:58;3.40;74.10
3678;DHT22;1855;50.934;6.958;2023-04-05T06:48:25;3.40;73.70
3678;DHT22;1855;50.934;6.958;2023-04-05T06:50:56;3.50;72.90
3678;DHT22;1855;50.934;6.958;2023-04-05T06:53:24;3.50;72.10
3678;DHT22;1855;50.934;6.958;2023-04-05T06:55:52;3.60;72.60
3678;DHT22;1855;50.934;6.958;2023-04-05T06:58:19;3.70;72.30
3678;DHT22;1855;50.934;6.958;2023-04-05T07:00:46;3.80;71.10
3678;DHT22;1855;50.934;6.958;2023-04-05T07:03:13;3.90;70.50
3678;DHT22;1855;50.934;6.958;2023-04-05T07:05:40;4.00;70.20
3678;DHT22;1855;50.934;6.958;2023-04-05T07:08:07;4.00;68.90
3678;DHT22;1855;50.934;6.958;2023-04-05T07:10:38;4.10;68.90
3678;DHT22;1855;50.934;6.958;2023-04-05T07:13:06;4.10;68.80
3678;DHT22;1855;50.934;6.958;2023-04-05T07:15:32;4.20;68.90
3678;DHT22;1855;50.934;6.958;2023-04-05T07:17:59;4.30;68.60
3678;DHT22;1855;50.934;6.958;2023-04-05T07:20:26;4.40;69.00
3678;DHT22;1855;50.934;6.958;2023-04-05T07:22:53;4.60;68.80
3678;DHT22;1855;50.934;6.958;2023-04-05T07:25:19;4.80;67.90
3678;DHT22;1855;50.934;6.958;2023-04-05T07:27:48;4.90;65.80
3678;DHT22;1855;50.934;6.958;2023-04-05T07:30:14;5.00;65.60
3678;DHT22;1855;50.934;6.958;2023-04-05T07:32:41;5.20;65.40
3678;DHT22;1855;50.934;6.958;2023-04-05T07:35:08;5.30;64.30
3678;DHT22;1855;50.934;6.958;2023-04-05T07:37:35;5.40;62.80
3678;DHT22;1855;50.934;6.958;2023-04-05T07:40:03;5.50;61.70
3678;DHT22;1855;50.934;6.958;2023-04-05T07:42:31;5.50;61.10
3678;DHT22;1855;50.934;6.958;2023-04-05T07:45:00;5.60;61.60
3678;DHT22;1855;50.934;6.958;2023-04-05T07:47:27;5.60;61.80
3678;DHT22;1855;50.934;6.958;2023-04-05T07:49:53;5.60;61.10
3678;DHT22;1855;50.934;6.958;2023-04-05T07:52:20;5.80;61.00
3678;DHT22;1855;50.934;6.958;2023-04-05T07:54:47;5.90;59.90
3678;DHT22;1855;50.934;6.958;2023-04-05T07:57:15;6.10;59.00
3678;DHT22;1855;50.934;6.958;2023-04-05T07:59:43;6.20;58.70
3678;DHT22;1855;50.934;6.958;2023-04-05T08:02:11;6.30;58.30
3678;DHT22;1855;50.934;6.958;2023-04-05T08:04:38;6.50;57.20
3678;DHT22;1855;50.934;6.958;2023-04-05T08:07:04;6.60;56.70
3678;DHT22;1855;50.934;6.958;2023-04-05T08:09:31;6.70;56.70
3678;DHT22;1855;50.934;6.958;2023-04-05T08:11:59;6.90;55.80
3678;DHT22;1855;50.934;6.958;2023-04-05T08:14:27;7.10;55.80
3678;DHT22;1855;50.934;6.958;2023-04-05T08:16:54;7.20;55.20
3678;DHT22;1855;50.934;6.958;2023-04-05T08:19:22;7.30;54.40
3678;DHT22;1855;50.934;6.958;2023-04-05T08:21:48;7.40;53.80
3678;DHT22;1855;50.934;6.958;2023-04-05T08:24:15;7.50;53.40
3678;DHT22;1855;50.934;6.958;2023-04-05T08:26:42;7.80;52.80
3678;DHT22;1855;50.934;6.958;2023-04-05T08:29:09;8.10;52.20
3678;DHT22;1855;50.934;6.958;2023-04-05T08:31:35;8.30;49.90
3678;DHT22;1855;50.934;6.958;2023-04-05T08:34:03;8.30;50.50
3678;DHT22;1855;50.934;6.958;2023-04-05T08:36:34;8.40;50.40
3678;DHT22;1855;50.934;6.958;2023-04-05T08:39:00;8.40;50.50
3678;DHT22;1855;50.934;6.958;2023-04-05T08:41:34;8.50;50.20
3678;DHT22;1855;50.934;6.958;2023-04-05T08:44:03;8.70;49.20
3678;DHT22;1855;50.934;6.958;2023-04-05T08:46:33;9.00;49.30
3678;DHT22;1855;50.934;6.958;2023-04-05T08:49:04;9.30;47.80
3678;DHT22;1855;50.934;6.958;2023-04-05T08:51:34;9.40;46.70
3678;DHT22;1855;50.934;6.958;2023-04-05T08:54:02;9.60;45.70
3678;DHT22;1855;50.934;6.958;2023-04-05T08:56:31;9.80;45.80
3678;DHT22;1855;50.934;6.958;2023-04-05T08:59:01;9.90;45.10
3678;DHT22;1855;50.934;6.958;2023-04-05T09:01:29;10.00;44.90
3678;DHT22;1855;50.934;6.958;2023-04-05T09:03:56;10.20;45.20
3678;DHT22;1855;50.934;6.958;2023-04-05T09:06:25;10.30;44.70
3678;DHT22;1855;50.934;6.958;2023-04-05T09:08:56;10.70;42.80
3678;DHT22;1855;50.934;6.958;2023-04-05T09:11:23;10.70;42.50
3678;DHT22;1855;50.934;6.958;2023-04-05T09:13:50;10.70;43.10
3678;DHT22;1855;50.934;6.958;2023-04-05T09:16:17;10.80;42.70
3678;DHT22;1855;50.934;6.958;2023-04-05T09:18:45;10.90;42.10
3678;DHT22;1855;50.934;6.958;2023-04-05T09:21:11;10.80;42.70
3678;DHT22;1855;50.934;6.958;2023-04-05T09:23:50;11.10;42.80
3678;DHT22;1855;50.934;6.958;2023-04-05T09:26:19;11.40;41.00
3678;DHT22;1855;50.934;6.958;2023-04-05T09:28:46;11.40;39.40
3678;DHT22;1855;50.934;6.958;2023-04-05T09:31:29;11.30;39.10
3678;DHT22;1855;50.934;6.958;2023-04-05T09:33:57;11.30;38.80
3678;DHT22;1855;50.934;6.958;2023-04-05T09:36:25;11.30;39.00
3678;DHT22;1855;50.934;6.958;2023-04-05T09:38:52;11.30;39.10
3678;DHT22;1855;50.934;6.958;2023-04-05T09:41:30;11.20;39.50
3678;DHT22;1855;50.934;6.958;2023-04-05T09:43:57;11.60;39.40
3678;DHT22;1855;50.934;6.958;2023-04-05T09:46:31;11.90;37.80
3678;DHT22;1855;50.934;6.958;2023-04-05T09:48:58;12.20;38.40
3678;DHT22;1855;50.934;6.958;2023-04-05T09:51:32;12.50;37.00
3678;DHT22;1855;50.934;6.958;2023-04-05T09:54:00;12.70;36.40
3678;DHT22;1855;50.934;6.958;2023-04-05T09:56:32;12.70;35.90
3678;DHT22;1855;50.934;6.958;2023-04-05T09:59:00;12.80;35.50
3678;DHT22;1855;50.934;6.958;2023-04-05T10:01:27;12.80;36.20
3678;DHT22;1855;50.934;6.958;2023-04-05T10:03:56;13.00;35.90
3678;DHT22;1855;50.934;6.958;2023-04-05T10:06:33;13.10;35.40
3678;DHT22;1855;50.934;6.958;2023-04-05T10:09:01;13.20;35.60
3678;DHT22;1855;50.934;6.958;2023-04-05T10:11:31;13.40;35.20
3678;DHT22;1855;50.934;6.958;2023-04-05T10:14:00;13.80;34.30
3678;DHT22;1855;50.934;6.958;2023-04-05T10:16:31;13.80;33.70
3678;DHT22;1855;50.934;6.958;2023-04-05T10:18:59;13.90;31.90
3678;DHT22;1855;50.934;6.958;2023-04-05T10:21:28;13.80;33.10
3678;DHT22;1855;50.934;6.958;2023-04-05T10:24:01;13.80;33.10
3678;DHT22;1855;50.934;6.958;2023-04-05T10:26:38;13.80;32.80
3678;DHT22;1855;50.934;6.958;2023-04-05T10:29:11;13.90;32.70
3678;DHT22;1855;50.934;6.958;2023-04-05T10:31:49;14.10;32.80
3678;DHT22;1855;50.934;6.958;2023-04-05T10:34:26;14.30;32.50
3678;DHT22;1855;50.934;6.958;2023-04-05T10:36:57;14.60;31.60
3678;DHT22;1855;50.934;6.958;2023-04-05T10:39:27;14.70;31.40
3678;DHT22;1855;50.934;6.958;2023-04-05T10:42:00;14.60;31.20
3678;DHT22;1855;50.934;6.958;2023-04-05T10:44:29;14.80;30.80
3678;DHT22;1855;50.934;6.958;2023-04-05T10:46:57;14.80;29.90
3678;DHT22;1855;50.934;6.958;2023-04-05T10:49:31;14.80;30.30
3678;DHT22;1855;50.934;6.958;2023-04-05T10:52:00;15.00;30.30
3678;DHT22;1855;50.934;6.958;2023-04-05T10:54:28;15.10;29.90
3678;DHT22;1855;50.934;6.958;2023-04-05T10:56:56;15.10;30.40
3678;DHT22;1855;50.934;6.958;2023-04-05T10:59:24;14.90;30.80
3678;DHT22;1855;50.934;6.958;2023-04-05T11:01:52;15.00;30.60
3678;DHT22;1855;50.934;6.958;2023-04-05T11:04:19;15.00;30.50
3678;DHT22;1855;50.934;6.958;2023-04-05T11:06:46;15.20;30.40
3678;DHT22;1855;50.934;6.958;2023-04-05T11:09:15;15.30;30.00
3678;DHT22;1855;50.934;6.958;2023-04-05T11:11:44;15.20;30.10
3678;DHT22;1855;50.934;6.958;2023-04-05T11:14:19;15.40;30.00
3678;DHT22;1855;50.934;6.958;2023-04-05T11:16:48;15.50;30.10
3678;DHT22;1855;50.934;6.958;2023-04-05T11:19:18;15.60;30.00
3678;DHT22;1855;50.934;6.958;2023-04-05T11:21:45;15.70;29.80
3678;DHT22;1855;50.934;6.958;2023-04-05T11:24:13;15.90;29.30
3678;DHT22;1855;50.934;6.958;2023-04-05T11:26:55;16.00;28.70
3678;DHT22;1855;50.934;6.958;2023-04-05T11:29:48;15.90;29.60
3678;DHT22;1855;50.934;6.958;2023-04-05T11:32:15;15.90;28.90
3678;DHT22;1855;50.934;6.958;2023-04-05T11:34:43;15.60;29.60
3678;DHT22;1855;50.934;6.958;2023-04-05T11:37:10;15.70;30.00
3678;DHT22;1855;50.934;6.958;2023-04-05T11:39:37;15.90;29.70
3678;DHT22;1855;50.934;6.958;2023-04-05T11:42:08;16.20;30.40
3678;DHT22;1855;50.934;6.958;2023-04-05T11:44:41;16.40;29.00
3678;DHT22;1855;50.934;6.958;2023-04-05T11:47:10;16.60;28.90
3678;DHT22;1855;50.934;6.958;2023-04-05T11:49:37;16.50;28.00
3678;DHT22;1855;50.934;6.958;2023-04-05T11:52:12;16.60;28.60
3678;DHT22;1855;50.934;6.958;2023-04-05T11:54:40;16.70;28.10
3678;DHT22;1855;50.934;6.958;2023-04-05T11:57:11;16.70;28.10
3678;DHT22;1855;50.934;6.958;2023-04-05T11:59:38;16.40;28.60
3678;DHT22;1855;50.934;6.958;2023-04-05T12:02:05;16.30;28.10
3678;DHT22;1855;50.934;6.958;2023-04-05T12:04:35;16.20;28.60
3678;DHT22;1855;50.934;6.958;2023-04-05T12:07:09;16.40;28.30
3678;DHT22;1855;50.934;6.958;2023-04-05T12:09:51;16.40;27.50
3678;DHT22;1855;50.934;6.958;2023-04-05T12:12:20;16.30;27.50
3678;DHT22;1855;50.934;6.958;2023-04-05T12:14:47;16.30;28.10
3678;DHT22;1855;50.934;6.958;2023-04-05T12:17:13;16.40;28.10
3678;DHT22;1855;50.934;6.958;2023-04-05T12:19:42;16.70;28.00
3678;DHT22;1855;50.934;6.958;2023-04-05T12:22:08;16.90;28.00
3678;DHT22;1855;50.934;6.958;2023-04-05T12:24:35;17.00;27.80
3678;DHT22;1855;50.934;6.958;2023-04-05T12:27:02;17.10;27.90
3678;DHT22;1855;50.934;6.958;2023-04-05T12:29:29;17.30;27.50
3678;DHT22;1855;50.934;6.958;2023-04-05T12:31:56;17.60;27.30
3678;DHT22;1855;50.934;6.958;2023-04-05T12:34:23;17.70;26.50
3678;DHT22;1855;50.934;6.958;2023-04-05T12:36:52;18.10;26.60
3678;DHT22;1855;50.934;6.958;2023-04-05T12:39:20;18.70;26.30
3678;DHT22;1855;50.934;6.958;2023-04-05T12:41:55;19.20;26.50
3678;DHT22;1855;50.934;6.958;2023-04-05T12:44:27;19.30;25.00
3678;DHT22;1855;50.934;6.958;2023-04-05T12:46:59;18.70;24.80
3678;DHT22;1855;50.934;6.958;2023-04-05T12:49:27;18.10;25.60
3678;DHT22;1855;50.934;6.958;2023-04-05T12:51:59;17.80;26.50
3678;DHT22;1855;50.934;6.958;2023-04-05T12:54:27;17.90;26.50
3678;DHT22;1855;50.934;6.958;2023-04-05T12:56:55;18.00;26.80
3678;DHT22;1855;50.934;6.958;2023-04-05T12:59:23;18.40;26.50
3678;DHT22;1855;50.934;6.958;2023-04-05T13:01:50;18.50;26.20
3678;DHT22;1855;50.934;6.958;2023-04-05T13:04:16;18.60;26.10
3678;DHT22;1855;50.934;6.958;2023-04-05T13:06:43;18.60;25.60
3678;DHT22;1855;50.934;6.958;2023-04-05T13:09:12;18.60;25.70
3678;DHT22;1855;50.934;6.958;2023-04-05T13:11:39;18.60;25.80
3678;DHT22;1855;50.934;6.958;2023-04-05T13:14:06;18.60;25.70
3678;DHT22;1855;50.934;6.958;2023-04-05T13:16:33;18.70;25.70
3678;DHT22;1855;50.934;6.958;2023-04-05T13:19:00;18.70;24.90
3678;DHT22;1855;50.934;6.958;2023-04-05T13:21:26;18.90;25.30
3678;DHT22;1855;50.934;6.958;2023-04-05T13:23:53;19.10;25.20
3678;DHT22;1855;50.934;6.958;2023-04-05T13:26:21;19.00;24.60
3678;DHT22;1855;50.934;6.958;2023-04-05T13:28:48;18.90;24.70
3678;DHT22;1855;50.934;6.958;2023-04-05T13:31:14;18.80;24.30
3678;DHT22;1855;50.934;6.958;2023-04-05T13:33:41;18.60;24.70
3678;DHT22;1855;50.934;6.958;2023-04-05T13:36:09;18.50;25.20
3678;DHT22;1855;50.934;6.958;2023-04-05T13:38:36;18.60;25.00
3678;DHT22;1855;50.934;6.958;2023-04-05T13:41:03;18.80;25.00
3678;DHT22;1855;50.934;6.958;2023-04-05T13:43:32;19.20;24.90
3678;DHT22;1855;50.934;6.958;2023-04-05T13:45:58;19.90;24.50
3678;DHT22;1855;50.934;6.958;2023-04-05T13:48:25;20.20;25.50
3678;DHT22;1855;50.934;6.958;2023-04-05T13:50:52;20.40;24.80
3678;DHT22;1855;50.934;6.958;2023-04-05T13:53:18;20.70;23.50
3678;DHT22;1855;50.934;6.958;2023-04-05T13:55:45;21.00;25.00
3678;DHT22;1855;50.934;6.958;2023-04-05T13:58:12;21.10;23.60
3678;DHT22;1855;50.934;6.958;2023-04-05T14:00:41;21.00;23.40
3678;DHT22;1855;50.934;6.958;2023-04-05T14:03:08;21.10;23.30
3678;DHT22;1855;50.934;6.958;2023-04-05T14:05:34;21.50;23.50
3678;DHT22;1855;50.934;6.958;2023-04-05T14:08:01;21.90;23.90
3678;DHT22;1855;50.934;6.958;2023-04-05T14:10:30;22.50;22.80
3678;DHT22;1855;50.934;6.958;2023-04-05T14:12:56;22.90;22.30
3678;DHT22;1855;50.934;6.958;2023-04-05T14:15:23;23.30;23.00
3678;DHT22;1855;50.934;6.958;2023-04-05T14:17:51;23.80;21.00
3678;DHT22;1855;50.934;6.958;2023-04-05T14:20:18;24.00;21.70
3678;DHT22;1855;50.934;6.958;2023-04-05T14:22:45;24.40;21.10
3678;DHT22;1855;50.934;6.958;2023-04-05T14:25:12;24.70;21.10
3678;DHT22;1855;50.934;6.958;2023-04-05T14:27:39;24.70;20.70
3678;DHT22;1855;50.934;6.958;2023-04-05T14:30:07;24.60;20.70
3678;DHT22;1855;50.934;6.958;2023-04-05T14:32:35;24.50;20.60
3678;DHT22;1855;50.934;6.958;2023-04-05T14:35:04;24.60;20.80
3678;DHT22;1855;50.934;6.958;2023-04-05T14:37:31;24.40;20.90
3678;DHT22;1855;50.934;6.958;2023-04-05T14:39:59;24.40;20.70
3678;DHT22;1855;50.934;6.958;2023-04-05T14:42:26;24.80;20.70
3678;DHT22;1855;50.934;6.958;2023-04-05T14:44:52;25.10;19.90
3678;DHT22;1855;50.934;6.958;2023-04-05T14:47:19;25.30;20.10
3678;DHT22;1855;50.934;6.958;2023-04-05T14:49:46;25.70;20.10
3678;DHT22;1855;50.934;6.958;2023-04-05T14:52:14;26.20;19.40
3678;DHT22;1855;50.934;6.958;2023-04-05T14:54:41;26.30;18.90
3678;DHT22;1855;50.934;6.958;2023-04-05T14:57:09;26.80;19.10
3678;DHT22;1855;50.934;6.958;2023-04-05T14:59:36;27.40;19.20
3678;DHT22;1855;50.934;6.958;2023-04-05T15:02:03;27.90;18.30
3678;DHT22;1855;50.934;6.958;2023-04-05T15:04:30;28.00;18.70
3678;DHT22;1855;50.934;6.958;2023-04-05T15:06:57;28.10;17.90
3678;DHT22;1855;50.934;6.958;2023-04-05T15:09:25;27.50;17.40
3678;DHT22;1855;50.934;6.958;2023-04-05T15:11:52;27.10;17.90
3678;DHT22;1855;50.934;6.958;2023-04-05T15:14:19;27.20;18.20
3678;DHT22;1855;50.934;6.958;2023-04-05T15:16:46;27.00;18.00
3678;DHT22;1855;50.934;6.958;2023-04-05T15:19:13;26.60;17.80
3678;DHT22;1855;50.934;6.958;2023-04-05T15:21:40;26.20;18.10
3678;DHT22;1855;50.934;6.958;2023-04-05T15:24:08;26.20;18.30
3678;DHT22;1855;50.934;6.958;2023-04-05T15:26:37;26.40;18.20
3678;DHT22;1855;50.934;6.958;2023-04-05T15:29:05;26.60;18.40
3678;DHT22;1855;50.934;6.958;2023-04-05T15:31:33;27.10;18.10
3678;DHT22;1855;50.934;6.958;2023-04-05T15:34:00;27.30;17.80
3678;DHT22;1855;50.934;6.958;2023-04-05T15:36:27;27.40;17.30
3678;DHT22;1855;50.934;6.958;2023-04-05T15:38:54;27.10;17.90
3678;DHT22;1855;50.934;6.958;2023-04-05T15:41:21;27.30;17.90
3678;DHT22;1855;50.934;6.958;2023-04-05T15:43:49;27.50;17.80
3678;DHT22;1855;50.934;6.958;2023-04-05T15:46:16;27.50;17.50
3678;DHT22;1855;50.934;6.958;2023-04-05T15:48:43;27.50;17.70
3678;DHT22;1855;50.934;6.958;2023-04-05T15:51:10;27.80;17.40
3678;DHT22;1855;50.934;6.958;2023-04-05T15:53:37;28.10;17.30
3678;DHT22;1855;50.934;6.958;2023-04-05T15:56:05;27.70;17.00
3678;DHT22;1855;50.934;6.958;2023-04-05T15:58:31;27.10;17.20
3678;DHT22;1855;50.934;6.958;2023-04-05T16:01:00;26.80;17.60
3678;DHT22;1855;50.934;6.958;2023-04-05T16:03:26;26.70;17.50
3678;DHT22;1855;50.934;6.958;2023-04-05T16:05:53;26.60;17.40
3678;DHT22;1855;50.934;6.958;2023-04-05T16:08:20;26.60;17.40
3678;DHT22;1855;50.934;6.958;2023-04-05T16:10:47;26.50;17.10
3678;DHT22;1855;50.934;6.958;2023-04-05T16:13:14;26.40;17.40
3678;DHT22;1855;50.934;6.958;2023-04-05T16:15:41;26.50;17.50
3678;DHT22;1855;50.934;6.958;2023-04-05T16:18:10;26.40;17.20
3678;DHT22;1855;50.934;6.958;2023-04-05T16:20:38;26.40;17.40